createdAt,value
2018-12-27T00:01:04.065Z,95597.35
2018-12-27T00:03:30.417Z,95601.51
2018-12-27T00:05:56.754Z,95604.28
2018-12-27T00:08:23.084Z,95603.94
2018-12-27T00:10:49.432Z,95603.34
2018-12-27T00:13:15.838Z,95603.38
2018-12-27T00:15:42.172Z,95611.31
2018-12-27T00:18:08.506Z,95608.58
2018-12-27T00:20:34.836Z,95607.64
2018-12-27T00:23:01.239Z,95602.80
2018-12-27T00:25:27.632Z,95600.23
2018-12-27T00:27:54.026Z,95608.85
2018-12-27T00:30:20.406Z,95607.57
2018-12-27T00:32:46.759Z,95604.84
2018-12-27T00:35:13.091Z,95611.63
2018-12-27T00:37:39.510Z,95605.70
2018-12-27T00:40:05.866Z,95602.72
2018-12-27T00:42:32.246Z,95600.33
2018-12-27T00:44:58.585Z,95602.78
2018-12-27T00:47:24.908Z,95607.02
2018-12-27T00:49:51.410Z,95597.38
2018-12-27T00:52:17.764Z,95601.33
2018-12-27T00:54:44.143Z,95606.36
2018-12-27T00:57:10.480Z,95615.05
2018-12-27T00:59:36.855Z,95609.19
2018-12-27T01:02:03.295Z,95609.19
2018-12-27T01:04:29.644Z,95606.80
2018-12-27T01:06:56.036Z,95610.75
2018-12-27T01:09:22.450Z,95607.74
2018-12-27T01:11:48.773Z,95619.89
2018-12-27T01:14:15.177Z,95611.76
2018-12-27T01:16:41.531Z,95614.31
2018-12-27T01:19:07.810Z,95616.22
2018-12-27T01:21:34.145Z,95615.16
2018-12-27T01:24:00.475Z,95609.72
2018-12-27T01:26:26.806Z,95613.70
2018-12-27T01:28:53.148Z,95609.19
2018-12-27T01:31:19.540Z,95600.74
2018-12-27T01:33:45.953Z,95595.83
2018-12-27T01:36:12.322Z,95598.56
2018-12-27T01:38:38.727Z,95599.77
2018-12-27T01:41:05.086Z,95590.80
2018-12-27T01:43:31.420Z,95591.81
2018-12-27T01:45:57.802Z,95591.91
2018-12-27T01:48:24.133Z,95596.37
2018-12-27T01:50:50.486Z,95580.06
2018-12-27T01:53:16.835Z,95586.64
2018-12-27T01:55:43.188Z,95583.73
2018-12-27T01:58:09.641Z,95584.39
2018-12-27T02:00:36.010Z,95584.47
2018-12-27T02:03:02.343Z,95579.34
2018-12-27T02:05:28.729Z,95579.34
2018-12-27T02:07:55.107Z,95576.39
2018-12-27T02:10:21.456Z,95575.66
2018-12-27T02:12:47.870Z,95572.69
2018-12-27T02:15:14.195Z,95571.51
2018-12-27T02:17:40.639Z,95573.97
2018-12-27T02:20:06.965Z,95571.37
2018-12-27T02:22:33.349Z,95565.16
2018-12-27T02:24:59.720Z,95569.77
2018-12-27T02:27:26.159Z,95566.58
2018-12-27T02:29:52.520Z,95573.61
2018-12-27T02:32:18.886Z,95577.34
2018-12-27T02:34:45.274Z,95564.52
2018-12-27T02:37:11.621Z,95572.77
2018-12-27T02:39:40.079Z,95569.64
2018-12-27T02:42:04.290Z,95571.58
2018-12-27T02:44:30.619Z,95558.86
2018-12-27T02:46:56.943Z,95557.39
2018-12-27T02:49:23.270Z,95550.05
2018-12-27T02:51:49.600Z,95549.79
2018-12-27T02:54:15.937Z,95543.30
2018-12-27T02:56:42.270Z,95544.09
2018-12-27T02:59:08.659Z,95549.08
2018-12-27T03:01:34.997Z,95541.28
2018-12-27T03:04:01.343Z,95546.41
2018-12-27T03:06:27.680Z,95544.56
2018-12-27T03:08:54.023Z,95539.36
2018-12-27T03:11:20.354Z,95547.70
2018-12-27T03:13:46.693Z,95543.75
2018-12-27T03:16:13.052Z,95544.23
2018-12-27T03:18:39.405Z,95549.64
2018-12-27T03:21:05.785Z,95557.79
2018-12-27T03:23:32.106Z,95552.93
2018-12-27T03:25:58.524Z,95553.69
2018-12-27T03:28:24.911Z,95556.25
2018-12-27T03:30:51.253Z,95556.87
2018-12-27T03:33:17.593Z,95552.03
2018-12-27T03:35:44.001Z,95557.16
2018-12-27T03:38:10.332Z,95560.08
2018-12-27T03:40:36.668Z,95562.19
2018-12-27T03:43:03.133Z,95568.34
2018-12-27T03:45:29.464Z,95565.33
2018-12-27T03:47:55.820Z,95567.41
2018-12-27T03:50:22.157Z,95567.34
2018-12-27T03:52:48.536Z,95569.45
2018-12-27T03:55:14.883Z,95578.63
2018-12-27T03:57:41.199Z,95579.24
2018-12-27T04:00:07.545Z,95579.09
2018-12-27T04:02:33.897Z,95580.72
2018-12-27T04:05:00.299Z,95586.50
2018-12-27T04:07:26.715Z,95591.45
2018-12-27T04:09:53.068Z,95599.34
2018-12-27T04:12:19.478Z,95602.19
2018-12-27T04:14:45.829Z,95603.31
2018-12-27T04:17:12.268Z,95608.27
2018-12-27T04:19:38.612Z,95615.89
2018-12-27T04:22:04.964Z,95619.56
2018-12-27T04:24:31.351Z,95617.82
2018-12-27T04:26:57.637Z,95624.52
2018-12-27T04:29:24.005Z,95622.66
2018-12-27T04:31:50.284Z,95622.97
2018-12-27T04:34:16.679Z,95627.43
2018-12-27T04:36:43.080Z,95631.77
2018-12-27T04:39:09.411Z,95634.88
2018-12-27T04:41:35.707Z,95634.80
2018-12-27T04:44:02.081Z,95638.46
2018-12-27T04:46:28.449Z,95647.27
2018-12-27T04:48:54.781Z,95647.61
2018-12-27T04:51:21.110Z,95643.30
2018-12-27T04:53:47.425Z,95657.70
2018-12-27T04:56:13.777Z,95653.50
2018-12-27T04:58:40.103Z,95661.86
2018-12-27T05:01:06.640Z,95660.84
2018-12-27T05:03:33.003Z,95658.99
2018-12-27T05:05:59.392Z,95671.31
2018-12-27T05:08:25.734Z,95664.70
2018-12-27T05:10:52.109Z,95667.61
2018-12-27T05:13:18.393Z,95669.00
2018-12-27T05:15:44.804Z,95668.44
2018-12-27T05:18:11.135Z,95670.94
2018-12-27T05:20:37.465Z,95672.67
2018-12-27T05:23:03.801Z,95677.17
2018-12-27T05:25:30.132Z,95676.15
2018-12-27T05:27:56.516Z,95681.86
2018-12-27T05:30:22.849Z,95679.47
2018-12-27T05:32:49.199Z,95688.55
2018-12-27T05:35:15.530Z,95683.67
2018-12-27T05:37:41.904Z,95692.41
2018-12-27T05:40:08.228Z,95698.00
2018-12-27T05:42:34.623Z,95695.96
2018-12-27T05:45:00.919Z,95699.47
2018-12-27T05:47:27.283Z,95700.57
2018-12-27T05:49:53.587Z,95713.31
2018-12-27T05:52:19.950Z,95712.22
2018-12-27T05:54:46.843Z,95726.81
2018-12-27T05:57:12.756Z,95724.16
2018-12-27T05:59:39.147Z,95727.64
2018-12-27T06:02:05.477Z,95737.48
2018-12-27T06:04:33.944Z,95735.63
2018-12-27T06:06:58.158Z,95730.59
2018-12-27T06:09:24.586Z,95740.16
2018-12-27T06:11:50.924Z,95732.81
2018-12-27T06:14:17.254Z,95739.44
2018-12-27T06:16:43.642Z,95743.83
2018-12-27T06:19:09.996Z,95746.31
2018-12-27T06:21:36.429Z,95754.75
2018-12-27T06:24:02.888Z,95746.28
2018-12-27T06:26:29.293Z,95753.55
2018-12-27T06:28:55.624Z,95755.47
2018-12-27T06:31:21.999Z,95757.97
2018-12-27T06:33:48.392Z,95750.14
2018-12-27T06:36:14.733Z,95749.05
2018-12-27T06:38:41.079Z,95747.03
2018-12-27T06:41:07.410Z,95743.70
2018-12-27T06:43:33.830Z,95751.27
2018-12-27T06:46:00.180Z,95753.99
2018-12-27T06:48:26.519Z,95748.77
2018-12-27T06:50:52.853Z,95751.80
2018-12-27T06:53:19.177Z,95759.44
2018-12-27T06:55:45.508Z,95748.58
2018-12-27T06:58:11.906Z,95759.25
2018-12-27T07:00:38.338Z,95757.96
2018-12-27T07:03:04.669Z,95755.46
2018-12-27T07:05:31.068Z,95762.72
2018-12-27T07:07:57.408Z,95761.25
2018-12-27T07:10:23.770Z,95773.66
2018-12-27T07:12:50.116Z,95770.06
2018-12-27T07:15:16.437Z,95767.67
2018-12-27T07:17:42.876Z,95769.69
2018-12-27T07:20:09.198Z,95771.42
2018-12-27T07:22:35.534Z,95772.63
2018-12-27T07:25:01.940Z,95776.30
2018-12-27T07:27:28.382Z,95773.27
2018-12-27T07:29:54.710Z,95776.19
2018-12-27T07:32:21.065Z,95781.97
2018-12-27T07:34:47.387Z,95779.40
2018-12-27T07:37:13.730Z,95776.29
2018-12-27T07:39:40.250Z,95777.92
2018-12-27T07:42:06.588Z,95783.06
2018-12-27T07:44:32.977Z,95786.13
2018-12-27T07:46:59.330Z,95788.22
2018-12-27T07:49:25.663Z,95786.66
2018-12-27T07:51:52.096Z,95789.03
2018-12-27T07:54:18.451Z,95795.84
2018-12-27T07:56:44.843Z,95793.35
2018-12-27T07:59:11.194Z,95794.75
2018-12-27T08:01:37.554Z,95797.78
2018-12-27T08:04:03.866Z,95793.55
2018-12-27T08:06:30.196Z,95798.42
2018-12-27T08:08:56.529Z,95797.21
2018-12-27T08:11:22.861Z,95804.02
2018-12-27T08:13:49.178Z,95803.64
2018-12-27T08:16:15.500Z,95812.20
2018-12-27T08:18:41.848Z,95812.12
2018-12-27T08:21:08.198Z,95810.84
2018-12-27T08:23:34.546Z,95803.91
2018-12-27T08:26:00.875Z,95811.55
2018-12-27T08:28:27.230Z,95812.84
2018-12-27T08:30:53.564Z,95818.90
2018-12-27T08:33:19.918Z,95818.64
2018-12-27T08:35:46.235Z,95821.28
2018-12-27T08:38:12.555Z,95814.84
2018-12-27T08:40:38.904Z,95816.05
2018-12-27T08:43:05.320Z,95816.96
2018-12-27T08:45:31.662Z,95817.23
2018-12-27T08:47:57.977Z,95822.11
2018-12-27T08:50:24.357Z,95818.17
2018-12-27T08:52:50.705Z,95813.74
2018-12-27T08:55:17.108Z,95813.55
2018-12-27T08:57:43.394Z,95817.33
2018-12-27T09:00:09.729Z,95810.97
2018-12-27T09:02:36.065Z,95813.67
2018-12-27T09:05:02.420Z,95809.44
2018-12-27T09:07:28.752Z,95810.59
2018-12-27T09:09:55.100Z,95815.66
2018-12-27T09:12:21.431Z,95810.25
2018-12-27T09:14:47.818Z,95804.84
2018-12-27T09:17:14.182Z,95804.45
2018-12-27T09:19:40.524Z,95802.34
2018-12-27T09:22:06.912Z,95806.28
2018-12-27T09:24:33.298Z,95808.32
2018-12-27T09:26:59.650Z,95811.72
2018-12-27T09:29:26.091Z,95808.13
2018-12-27T09:31:52.405Z,95805.55
2018-12-27T09:34:18.838Z,95809.41
2018-12-27T09:36:45.151Z,95802.52
2018-12-27T09:39:11.509Z,95810.78
2018-12-27T09:41:37.852Z,95804.55
2018-12-27T09:44:04.178Z,95802.70
2018-12-27T09:46:30.545Z,95804.36
2018-12-27T09:48:56.871Z,95799.56
2018-12-27T09:51:23.248Z,95796.38
2018-12-27T09:53:49.579Z,95799.03
2018-12-27T09:56:15.958Z,95798.58
2018-12-27T09:58:42.284Z,95795.92
2018-12-27T10:01:08.656Z,95797.92
2018-12-27T10:03:35.009Z,95794.30
2018-12-27T10:06:01.408Z,95793.03
2018-12-27T10:08:29.001Z,95787.36
2018-12-27T10:10:54.193Z,95787.53
2018-12-27T10:13:20.523Z,95784.22
2018-12-27T10:15:46.923Z,95778.61
2018-12-27T10:18:13.255Z,95774.95
2018-12-27T10:20:39.685Z,95773.92
2018-12-27T10:23:06.017Z,95766.94
2018-12-27T10:25:32.422Z,95763.42
2018-12-27T10:27:58.801Z,95758.19
2018-12-27T10:30:25.123Z,95755.95
2018-12-27T10:32:51.450Z,95751.30
2018-12-27T10:35:17.867Z,95749.63
2018-12-27T10:37:44.267Z,95745.05
2018-12-27T10:40:10.608Z,95740.59
2018-12-27T10:42:37.045Z,95743.17
2018-12-27T10:45:03.373Z,95740.14
2018-12-27T10:47:29.811Z,95732.22
2018-12-27T10:49:56.215Z,95726.11
2018-12-27T10:52:22.545Z,95724.00
2018-12-27T10:54:48.940Z,95723.54
2018-12-27T10:57:16.277Z,95718.70
2018-12-27T10:59:41.639Z,95718.96
2018-12-27T11:02:08.022Z,95720.56
2018-12-27T11:04:34.379Z,95720.42
2018-12-27T11:07:00.889Z,95720.10
2018-12-27T11:09:27.210Z,95716.61
2018-12-27T11:11:53.590Z,95721.31
2018-12-27T11:14:19.982Z,95715.58
2018-12-27T11:16:46.408Z,95717.91
2018-12-27T11:19:12.781Z,95714.61
2018-12-27T11:21:39.118Z,95710.17
2018-12-27T11:24:05.514Z,95706.23
2018-12-27T11:26:31.843Z,95706.94
2018-12-27T11:28:58.238Z,95702.16
2018-12-27T11:31:24.621Z,95702.65
2018-12-27T11:33:51.000Z,95698.75
2018-12-27T11:36:17.626Z,95707.65
2018-12-27T11:38:43.764Z,95702.05
2018-12-27T11:41:10.101Z,95703.58
2018-12-27T11:43:36.506Z,95706.98
2018-12-27T11:46:02.859Z,95704.04
2018-12-27T11:48:29.192Z,95711.23
2018-12-27T11:50:55.623Z,95708.39
2018-12-27T11:53:21.988Z,95709.56
2018-12-27T11:55:48.363Z,95716.00
2018-12-27T11:58:14.744Z,95713.42
2018-12-27T12:00:41.078Z,95711.85
2018-12-27T12:03:07.412Z,95715.59
2018-12-27T12:05:33.811Z,95720.87
2018-12-27T12:08:00.189Z,95723.33
2018-12-27T12:10:26.540Z,95718.92
2018-12-27T12:12:52.876Z,95729.69
2018-12-27T12:15:19.212Z,95724.98
2018-12-27T12:17:45.592Z,95721.83
2018-12-27T12:20:11.972Z,95725.45
2018-12-27T12:22:38.358Z,95728.02
2018-12-27T12:25:04.759Z,95728.48
2018-12-27T12:27:32.050Z,95726.02
2018-12-27T12:29:58.470Z,95722.70
2018-12-27T12:32:24.878Z,95725.36
2018-12-27T12:34:51.209Z,95727.56
2018-12-27T12:37:17.647Z,95731.34
2018-12-27T12:39:43.928Z,95720.41
2018-12-27T12:42:10.442Z,95722.12
2018-12-27T12:44:36.844Z,95725.36
2018-12-27T12:47:03.218Z,95722.83
2018-12-27T12:49:29.549Z,95723.29
2018-12-27T12:51:55.924Z,95724.12
2018-12-27T12:54:22.358Z,95726.58
2018-12-27T12:59:15.129Z,95730.64
2018-12-27T13:01:41.537Z,95730.64
2018-12-27T13:04:07.892Z,95733.97
2018-12-27T13:06:34.228Z,95739.33
2018-12-27T13:09:00.586Z,95736.50
2018-12-27T13:11:26.932Z,95741.70
2018-12-27T13:13:53.345Z,95742.58
2018-12-27T13:16:19.752Z,95735.42
2018-12-27T13:18:47.467Z,95745.73
2018-12-27T13:21:12.535Z,95741.37
2018-12-27T13:23:41.012Z,95740.58
2018-12-27T13:26:07.728Z,95741.03
2018-12-27T13:28:34.211Z,95741.75
2018-12-27T13:31:00.603Z,95741.29
2018-12-27T13:33:27.022Z,95735.72
2018-12-27T13:35:53.355Z,95735.26
2018-12-27T13:38:19.667Z,95732.58
2018-12-27T13:40:46.063Z,95743.73
2018-12-27T13:43:12.389Z,95744.44
2018-12-27T13:45:38.731Z,95739.46
2018-12-27T13:48:05.062Z,95744.33
2018-12-27T13:50:31.426Z,95749.11
2018-12-27T13:52:57.796Z,95745.73
2018-12-27T13:55:24.177Z,95742.58
2018-12-27T13:57:50.561Z,95741.50
2018-12-27T14:00:16.892Z,95743.33
2018-12-27T14:02:43.293Z,95745.39
2018-12-27T14:05:09.630Z,95746.89
2018-12-27T14:07:36.017Z,95743.65
2018-12-27T14:10:02.354Z,95739.58
2018-12-27T14:12:30.777Z,95745.77
2018-12-27T14:14:57.178Z,95737.30
2018-12-27T14:17:23.505Z,95740.87
2018-12-27T14:19:49.914Z,95743.45
2018-12-27T14:22:16.323Z,95743.26
2018-12-27T14:24:42.651Z,95749.77
2018-12-27T14:27:08.981Z,95751.80
2018-12-27T14:29:35.392Z,95753.63
2018-12-27T14:32:01.738Z,95751.43
2018-12-27T14:34:28.083Z,95753.46
2018-12-27T14:36:54.414Z,95755.55
2018-12-27T14:39:20.804Z,95757.04
2018-12-27T14:41:47.141Z,95754.47
2018-12-27T14:44:14.449Z,95756.95
2018-12-27T14:46:39.927Z,95756.84
2018-12-27T14:49:06.312Z,95758.78
2018-12-27T14:51:32.644Z,95759.62
2018-12-27T14:53:59.033Z,95760.08
2018-12-27T14:56:25.383Z,95765.38
2018-12-27T14:58:51.769Z,95759.48
2018-12-27T15:01:18.095Z,95762.52
2018-12-27T15:03:44.558Z,95761.48
2018-12-27T15:06:10.890Z,95765.95
2018-12-27T15:08:37.246Z,95765.87
2018-12-27T15:11:03.644Z,95764.92
2018-12-27T15:13:29.984Z,95761.23
2018-12-27T15:15:56.372Z,95764.14
2018-12-27T15:18:22.849Z,95770.87
2018-12-27T15:20:49.239Z,95770.05
2018-12-27T15:23:15.542Z,95774.11
2018-12-27T15:25:41.916Z,95766.84
2018-12-27T15:28:08.269Z,95770.58
2018-12-27T15:30:34.649Z,95773.08
2018-12-27T15:33:01.051Z,95773.45
2018-12-27T15:35:27.396Z,95772.70
2018-12-27T15:37:53.792Z,95773.99
2018-12-27T15:40:20.176Z,95776.34
2018-12-27T15:42:46.562Z,95778.63
2018-12-27T15:45:12.903Z,95773.66
2018-12-27T15:47:39.272Z,95778.31
2018-12-27T15:50:05.679Z,95774.45
2018-12-27T15:52:32.011Z,95779.27
2018-12-27T15:54:58.390Z,95777.86
2018-12-27T15:57:24.670Z,95772.24
2018-12-27T15:59:50.995Z,95775.20
2018-12-27T16:02:17.325Z,95774.94
2018-12-27T16:04:43.733Z,95773.53
2018-12-27T16:07:10.115Z,95772.62
2018-12-27T16:09:36.428Z,95782.09
2018-12-27T16:12:02.754Z,95791.48
2018-12-27T16:14:29.081Z,95785.25
2018-12-27T16:16:55.483Z,95790.45
2018-12-27T16:19:21.864Z,95789.56
2018-12-27T16:24:14.362Z,95797.09
2018-12-27T16:26:40.705Z,95793.57
2018-12-27T16:29:07.095Z,95798.27
2018-12-27T16:31:33.435Z,95803.08
2018-12-27T16:33:59.829Z,95797.09
2018-12-27T16:36:26.167Z,95790.66
2018-12-27T16:38:52.548Z,95795.69
2018-12-27T16:41:18.890Z,95792.66
2018-12-27T16:43:45.256Z,95797.27
2018-12-27T16:46:11.592Z,95797.92
2018-12-27T16:48:37.914Z,95803.88
2018-12-27T16:51:04.254Z,95801.67
2018-12-27T16:53:30.593Z,95800.02
2018-12-27T16:55:57.070Z,95794.41
2018-12-27T16:58:23.385Z,95793.57
2018-12-27T17:00:49.684Z,95792.57
2018-12-27T17:03:16.045Z,95799.84
2018-12-27T17:05:42.407Z,95800.84
2018-12-27T17:08:08.814Z,95802.88
2018-12-27T17:10:35.140Z,95806.95
2018-12-27T17:13:01.515Z,95791.69
2018-12-27T17:15:27.916Z,95804.57
2018-12-27T17:17:54.242Z,95805.11
2018-12-27T17:20:20.572Z,95810.52
2018-12-27T17:22:46.919Z,95806.86
2018-12-27T17:25:13.247Z,95810.01
2018-12-27T17:27:39.579Z,95805.11
2018-12-27T17:30:05.910Z,95802.65
2018-12-27T17:32:32.295Z,95799.30
2018-12-27T17:34:58.646Z,95802.28
2018-12-27T17:37:24.976Z,95802.13
2018-12-27T17:39:51.313Z,95791.77
2018-12-27T17:42:17.645Z,95798.38
2018-12-27T17:44:44.051Z,95798.00
2018-12-27T17:47:10.422Z,95800.84
2018-12-27T17:49:36.818Z,95801.09
2018-12-27T17:52:03.165Z,95804.45
2018-12-27T17:54:29.501Z,95800.66
2018-12-27T17:56:55.877Z,95796.62
2018-12-27T17:59:22.282Z,95789.61
2018-12-27T18:01:48.611Z,95793.15
2018-12-27T18:04:14.944Z,95797.45
2018-12-27T18:06:41.332Z,95793.42
2018-12-27T18:09:07.678Z,95793.86
2018-12-27T18:11:34.020Z,95795.25
2018-12-27T18:14:00.362Z,95792.50
2018-12-27T18:16:26.737Z,95792.31
2018-12-27T18:18:53.067Z,95793.42
2018-12-27T18:21:19.462Z,95801.34
2018-12-27T18:23:45.785Z,95793.81
2018-12-27T18:26:12.121Z,95797.67
2018-12-27T18:28:38.460Z,95793.84
2018-12-27T18:31:04.785Z,95801.20
2018-12-27T18:33:31.207Z,95806.08
2018-12-27T18:35:57.568Z,95806.16
2018-12-27T18:38:23.897Z,95805.06
2018-12-27T18:40:50.282Z,95805.17
2018-12-27T18:43:16.617Z,95805.06
2018-12-27T18:45:42.966Z,95809.75
2018-12-27T18:48:09.316Z,95809.56
2018-12-27T18:50:35.701Z,95807.64
2018-12-27T18:53:02.008Z,95804.45
2018-12-27T18:55:28.392Z,95803.44
2018-12-27T18:57:54.740Z,95801.70
2018-12-27T19:00:21.136Z,95809.87
2018-12-27T19:02:47.518Z,95811.16
2018-12-27T19:05:13.842Z,95806.58
2018-12-27T19:07:44.842Z,95805.17
2018-12-27T19:10:06.581Z,95807.94
2018-12-27T19:12:32.954Z,95805.73
2018-12-27T19:14:59.288Z,95805.82
2018-12-27T19:17:25.694Z,95799.95
2018-12-27T19:19:52.035Z,95800.30
2018-12-27T19:22:18.359Z,95807.48
2018-12-27T19:24:44.718Z,95795.45
2018-12-27T19:27:11.049Z,95797.64
2018-12-27T19:29:37.451Z,95804.37
2018-12-27T19:32:03.859Z,95799.75
2018-12-27T19:34:30.207Z,95803.16
2018-12-27T19:36:56.547Z,95803.58
2018-12-27T19:39:22.934Z,95801.56
2018-12-27T19:41:51.769Z,95803.41
2018-12-27T19:44:18.151Z,95806.33
2018-12-27T19:46:44.500Z,95802.40
2018-12-27T19:49:10.908Z,95798.73
2018-12-27T19:51:37.256Z,95787.42
2018-12-27T19:54:03.661Z,95785.22
2018-12-27T19:56:29.993Z,95780.64
2018-12-27T19:58:56.320Z,95779.89
2018-12-27T20:01:22.696Z,95784.30
2018-12-27T20:03:49.027Z,95788.51
2018-12-27T20:06:16.579Z,95793.67
2018-12-27T20:08:41.792Z,95789.89
2018-12-27T20:11:08.169Z,95792.47
2018-12-27T20:13:34.496Z,95789.18
2018-12-27T20:16:00.849Z,95784.94
2018-12-27T20:18:27.165Z,95783.84
2018-12-27T20:20:53.567Z,95779.34
2018-12-27T20:23:19.914Z,95788.16
2018-12-27T20:25:46.307Z,95786.86
2018-12-27T20:28:12.705Z,95789.89
2018-12-27T20:30:39.085Z,95788.89
2018-12-27T20:33:05.422Z,95791.72
2018-12-27T20:35:31.801Z,95786.20
2018-12-27T20:37:58.127Z,95786.48
2018-12-27T20:40:24.587Z,95784.92
2018-12-27T20:42:50.930Z,95791.72
2018-12-27T20:45:17.261Z,95790.89
2018-12-27T20:47:43.613Z,95790.69
2018-12-27T20:50:10.025Z,95784.75
2018-12-27T20:52:36.350Z,95779.13
2018-12-27T20:55:02.680Z,95777.84
2018-12-27T20:57:29.016Z,95779.96
2018-12-27T20:59:55.343Z,95778.02
2018-12-27T21:02:21.862Z,95778.13
2018-12-27T21:04:49.483Z,95775.19
2018-12-27T21:07:14.635Z,95774.08
2018-12-27T21:09:40.958Z,95775.11
2018-12-27T21:12:07.335Z,95775.30
2018-12-27T21:14:33.823Z,95772.61
2018-12-27T21:17:00.148Z,95772.80
2018-12-27T21:19:26.540Z,95771.42
2018-12-27T21:21:52.896Z,95771.95
2018-12-27T21:24:19.343Z,95761.41
2018-12-27T21:26:45.715Z,95756.35
2018-12-27T21:29:12.071Z,95760.77
2018-12-27T21:31:38.489Z,95754.59
2018-12-27T21:34:04.876Z,95758.65
2018-12-27T21:36:31.263Z,95753.51
2018-12-27T21:38:57.593Z,95755.87
2018-12-27T21:41:23.998Z,95754.45
2018-12-27T21:43:50.337Z,95751.23
2018-12-27T21:46:16.656Z,95745.71
2018-12-27T21:48:43.035Z,95738.38
2018-12-27T21:51:10.434Z,95730.38
2018-12-27T21:53:35.824Z,95745.33
2018-12-27T21:56:02.175Z,95738.83
2018-12-27T21:58:28.516Z,95738.45
2018-12-27T22:00:55.024Z,95734.61
2018-12-27T22:03:21.399Z,95736.06
2018-12-27T22:05:47.763Z,95738.09
2018-12-27T22:08:14.094Z,95727.00
2018-12-27T22:10:40.433Z,95725.23
2018-12-27T22:13:06.772Z,95727.82
2018-12-27T22:15:33.110Z,95723.86
2018-12-27T22:17:59.487Z,95725.70
2018-12-27T22:20:25.815Z,95724.95
2018-12-27T22:22:52.201Z,95721.67
2018-12-27T22:25:18.651Z,95720.74
2018-12-27T22:27:44.957Z,95724.04
2018-12-27T22:30:11.241Z,95722.94
2018-12-27T22:32:37.581Z,95721.27
2018-12-27T22:35:03.917Z,95720.56
2018-12-27T22:37:30.426Z,95715.23
2018-12-27T22:39:56.755Z,95706.44
2018-12-27T22:42:23.136Z,95705.78
2018-12-27T22:44:49.467Z,95699.82
2018-12-27T22:47:15.838Z,95704.00
2018-12-27T22:49:42.206Z,95697.33
2018-12-27T22:52:08.590Z,95690.76
2018-12-27T22:54:34.982Z,95691.09
2018-12-27T22:57:01.314Z,95690.56
2018-12-27T22:59:27.760Z,95685.61
2018-12-27T23:01:54.098Z,95696.53
2018-12-27T23:04:20.463Z,95691.28
2018-12-27T23:06:46.826Z,95693.20
2018-12-27T23:09:13.156Z,95695.70
2018-12-27T23:11:39.539Z,95699.89
2018-12-27T23:14:05.907Z,95708.72
2018-12-27T23:16:32.264Z,95708.76
2018-12-27T23:19:01.386Z,95696.70
2018-12-27T23:21:27.811Z,95699.68
2018-12-27T23:23:54.172Z,95695.65
2018-12-27T23:26:20.558Z,95696.20
2018-12-27T23:28:46.895Z,95690.49
2018-12-27T23:31:13.269Z,95702.14
2018-12-27T23:33:39.679Z,95698.84
2018-12-27T23:36:06.004Z,95700.13
2018-12-27T23:38:32.333Z,95689.23
2018-12-27T23:40:58.689Z,95691.80
2018-12-27T23:43:25.023Z,95693.89
2018-12-27T23:45:51.421Z,95686.46
2018-12-27T23:48:17.717Z,95692.61
2018-12-27T23:50:44.044Z,95692.61
2018-12-27T23:53:10.397Z,95690.77
2018-12-27T23:55:36.808Z,95699.30
2018-12-27T23:58:03.185Z,95699.59
